createdAt,value
2019-04-25T00:01:38.274Z,16.73
2019-04-25T00:04:16.147Z,15.50
2019-04-25T00:06:53.426Z,15.93
2019-04-25T00:09:33.057Z,15.93
2019-04-25T00:12:12.152Z,13.75
2019-04-25T00:14:49.394Z,15.98
2019-04-25T00:17:28.163Z,14.87
2019-04-25T00:20:07.791Z,13.28
2019-04-25T00:22:54.689Z,13.65
2019-04-25T00:25:47.910Z,12.80
2019-04-25T00:28:25.041Z,12.73
2019-04-25T00:31:02.864Z,12.85
2019-04-25T00:33:43.691Z,12.78
2019-04-25T00:36:21.824Z,12.88
2019-04-25T00:38:59.142Z,12.70
2019-04-25T00:41:36.612Z,13.03
2019-04-25T00:44:14.494Z,12.33
2019-04-25T00:46:56.532Z,12.65
2019-04-25T00:49:32.253Z,12.23
2019-04-25T00:52:11.698Z,12.45
2019-04-25T00:54:50.429Z,13.25
2019-04-25T00:57:29.667Z,13.40
2019-04-25T01:00:34.772Z,12.55
2019-04-25T01:03:16.836Z,12.55
2019-04-25T01:05:54.634Z,12.78
2019-04-25T01:08:32.174Z,11.68
2019-04-25T01:11:11.493Z,12.90
2019-04-25T01:13:49.358Z,13.78
2019-04-25T01:16:27.404Z,13.65
2019-04-25T01:19:04.920Z,12.85
2019-04-25T01:21:43.915Z,13.03
2019-04-25T01:24:23.920Z,12.65
2019-04-25T01:27:03.329Z,13.20
2019-04-25T01:29:40.693Z,13.75
2019-04-25T01:32:21.330Z,12.75
2019-04-25T01:35:16.136Z,13.13
2019-04-25T01:38:11.727Z,12.88
2019-04-25T01:41:06.118Z,12.37
2019-04-25T01:43:53.118Z,11.78
2019-04-25T01:46:31.558Z,13.13
2019-04-25T01:49:09.232Z,13.35
2019-04-25T01:51:46.649Z,14.68
2019-04-25T01:54:25.505Z,12.88
2019-04-25T01:57:04.321Z,13.15
2019-04-25T01:59:43.718Z,13.48
2019-04-25T02:02:25.303Z,12.45
2019-04-25T02:05:04.765Z,13.30
2019-04-25T02:07:41.881Z,13.78
2019-04-25T02:10:20.083Z,14.20
2019-04-25T02:13:00.996Z,14.00
2019-04-25T02:15:39.878Z,14.33
2019-04-25T02:18:17.343Z,15.18
2019-04-25T02:20:58.857Z,14.40
2019-04-25T02:23:35.154Z,12.70
2019-04-25T02:26:17.914Z,14.25
2019-04-25T02:28:54.822Z,13.32
2019-04-25T02:31:34.466Z,13.08
2019-04-25T02:34:11.107Z,13.72
2019-04-25T02:36:48.710Z,14.23
2019-04-25T02:39:27.891Z,14.07
2019-04-25T02:42:07.972Z,15.00
2019-04-25T02:44:49.602Z,15.70
2019-04-25T02:47:37.642Z,16.80
2019-04-25T02:50:34.332Z,16.52
2019-04-25T02:53:36.532Z,15.03
2019-04-25T02:56:27.435Z,15.88
2019-04-25T02:58:50.789Z,15.93
2019-04-25T03:01:29.312Z,17.30
2019-04-25T03:04:10.734Z,16.73
2019-04-25T03:06:46.396Z,16.07
2019-04-25T03:09:25.004Z,15.90
2019-04-25T03:12:01.998Z,16.55
2019-04-25T03:14:40.005Z,16.80
2019-04-25T03:17:17.771Z,16.52
2019-04-25T03:20:14.911Z,15.65
2019-04-25T03:22:54.713Z,17.10
2019-04-25T03:25:33.557Z,16.37
2019-04-25T03:28:11.017Z,17.17
2019-04-25T03:30:49.625Z,15.72
2019-04-25T03:33:27.086Z,16.85
2019-04-25T03:36:05.497Z,15.35
2019-04-25T03:38:44.229Z,17.87
2019-04-25T03:41:21.248Z,15.28
2019-04-25T03:43:58.916Z,27.90
2019-04-25T03:46:36.562Z,18.42
2019-04-25T03:49:14.416Z,17.90
2019-04-25T03:51:51.896Z,16.50
2019-04-25T03:54:29.315Z,18.77
2019-04-25T03:57:08.911Z,16.45
2019-04-25T03:59:46.794Z,16.52
2019-04-25T04:02:25.682Z,15.63
2019-04-25T04:05:04.826Z,17.67
2019-04-25T04:07:43.498Z,15.75
2019-04-25T04:10:21.253Z,16.85
2019-04-25T04:12:58.207Z,17.05
2019-04-25T04:15:35.960Z,17.50
2019-04-25T04:18:28.444Z,16.17
2019-04-25T04:21:35.208Z,15.08
2019-04-25T04:24:26.114Z,18.67
2019-04-25T04:27:16.768Z,15.60
2019-04-25T04:29:55.099Z,14.65
2019-04-25T04:32:34.156Z,15.30
2019-04-25T04:35:11.041Z,13.80
2019-04-25T04:37:48.706Z,15.48
2019-04-25T04:40:26.879Z,15.90
2019-04-25T04:43:04.504Z,17.62
2019-04-25T04:45:43.863Z,15.18
2019-04-25T04:48:20.989Z,16.23
2019-04-25T04:50:58.680Z,16.50
2019-04-25T04:53:36.311Z,14.23
2019-04-25T04:56:15.090Z,16.00
2019-04-25T04:58:54.059Z,16.20
2019-04-25T05:01:33.815Z,16.93
2019-04-25T05:04:19.107Z,14.83
2019-04-25T05:07:05.834Z,15.58
2019-04-25T05:09:43.666Z,15.80
2019-04-25T05:12:21.651Z,15.18
2019-04-25T05:14:59.213Z,15.93
2019-04-25T05:17:38.477Z,15.23
2019-04-25T05:20:17.316Z,16.02
2019-04-25T05:22:56.104Z,17.25
2019-04-25T05:25:34.508Z,15.72
2019-04-25T05:28:11.500Z,15.50
2019-04-25T05:30:54.108Z,15.10
2019-04-25T05:33:33.704Z,14.03
2019-04-25T05:36:11.684Z,16.60
2019-04-25T05:38:49.231Z,16.93
2019-04-25T05:41:39.370Z,15.68
2019-04-25T05:44:17.339Z,15.98
2019-04-25T05:46:54.486Z,16.52
2019-04-25T05:49:32.141Z,14.95
2019-04-25T05:52:10.412Z,14.60
2019-04-25T05:54:48.676Z,16.12
2019-04-25T05:57:26.272Z,15.80
2019-04-25T06:00:06.828Z,16.02
2019-04-25T06:02:46.158Z,16.15
2019-04-25T06:05:26.406Z,16.90
2019-04-25T06:08:04.576Z,16.65
2019-04-25T06:11:13.562Z,16.35
2019-04-25T06:13:56.436Z,16.65
2019-04-25T06:16:38.300Z,15.53
2019-04-25T06:22:15.873Z,16.40
2019-04-25T06:24:58.460Z,16.73
2019-04-25T06:27:56.518Z,17.57
2019-04-25T06:30:29.520Z,16.75
2019-04-25T06:33:06.690Z,15.15
2019-04-25T06:35:44.279Z,18.48
2019-04-25T06:38:25.796Z,16.60
2019-04-25T06:41:03.469Z,17.62
2019-04-25T06:43:44.235Z,17.48
2019-04-25T06:46:49.312Z,18.57
2019-04-25T06:49:29.997Z,29.80
2019-04-25T06:52:08.268Z,19.42
2019-04-25T06:54:45.454Z,18.57
2019-04-25T06:57:24.447Z,17.55
2019-04-25T07:00:04.333Z,16.55
2019-04-25T07:02:43.551Z,19.62
2019-04-25T07:05:28.982Z,17.80
2019-04-25T07:08:00.774Z,18.12
2019-04-25T07:10:41.058Z,17.80
2019-04-25T07:13:19.270Z,18.40
2019-04-25T07:15:56.490Z,19.32
2019-04-25T07:18:37.225Z,19.10
2019-04-25T07:21:14.382Z,18.67
2019-04-25T07:23:51.632Z,19.42
2019-04-25T07:26:49.552Z,20.72
2019-04-25T07:29:44.465Z,19.25
2019-04-25T07:32:40.329Z,18.48
2019-04-25T07:35:17.952Z,18.67
2019-04-25T07:37:55.602Z,18.15
2019-04-25T07:40:34.027Z,17.55
2019-04-25T07:43:14.616Z,19.17
2019-04-25T07:45:53.527Z,17.10
2019-04-25T07:48:33.641Z,16.82
2019-04-25T07:51:10.555Z,47.60
2019-04-25T07:53:49.448Z,27.50
2019-04-25T07:56:27.785Z,18.30
2019-04-25T07:59:05.430Z,16.12
2019-04-25T08:01:43.675Z,17.05
2019-04-25T08:04:23.639Z,15.83
2019-04-25T08:07:04.104Z,12.68
2019-04-25T08:09:41.935Z,13.38
2019-04-25T08:12:21.585Z,12.85
2019-04-25T08:15:07.927Z,12.28
2019-04-25T08:18:04.092Z,11.80
2019-04-25T08:20:43.395Z,11.18
2019-04-25T08:23:20.860Z,9.63
2019-04-25T08:25:58.926Z,9.38
2019-04-25T08:28:49.993Z,9.73
2019-04-25T08:31:15.834Z,10.72
2019-04-25T08:33:53.720Z,9.95
2019-04-25T08:36:31.309Z,10.03
2019-04-25T08:39:11.495Z,10.72
2019-04-25T08:41:48.971Z,11.48
2019-04-25T08:44:26.539Z,11.60
2019-04-25T08:47:08.079Z,12.37
2019-04-25T08:49:57.139Z,12.25
2019-04-25T08:52:37.795Z,12.10
2019-04-25T08:55:34.906Z,13.70
2019-04-25T08:58:25.722Z,13.40
2019-04-25T09:01:28.890Z,13.10
2019-04-25T09:04:31.660Z,13.75
2019-04-25T09:07:13.481Z,14.03
2019-04-25T09:09:53.523Z,13.35
2019-04-25T09:12:31.035Z,13.72
2019-04-25T09:15:08.756Z,14.23
2019-04-25T09:17:47.697Z,13.90
2019-04-25T09:20:25.806Z,13.88
2019-04-25T09:23:03.352Z,12.90
2019-04-25T09:25:44.458Z,14.05
2019-04-25T09:28:21.556Z,12.55
2019-04-25T09:30:59.764Z,17.10
2019-04-25T09:33:37.574Z,34.05
2019-04-25T09:36:14.713Z,13.80
2019-04-25T09:38:56.240Z,13.00
2019-04-25T09:41:34.278Z,13.98
2019-04-25T09:44:18.193Z,13.98
2019-04-25T09:46:55.652Z,13.80
2019-04-25T09:49:39.145Z,14.40
2019-04-25T09:52:21.092Z,13.68
2019-04-25T09:55:24.173Z,14.47
2019-04-25T09:58:08.370Z,14.75
2019-04-25T10:00:48.717Z,15.18
2019-04-25T10:03:27.645Z,15.32
2019-04-25T10:06:06.892Z,14.45
2019-04-25T10:08:45.417Z,15.98
2019-04-25T10:11:23.807Z,15.05
2019-04-25T10:14:49.193Z,16.67
2019-04-25T10:17:26.844Z,16.45
2019-04-25T10:20:05.590Z,16.20
2019-04-25T10:22:44.567Z,17.98
2019-04-25T10:25:23.365Z,17.27
2019-04-25T10:28:01.228Z,16.85
2019-04-25T10:30:39.529Z,16.55
2019-04-25T10:33:17.867Z,16.23
2019-04-25T10:35:59.380Z,16.17
2019-04-25T10:38:35.114Z,16.20
2019-04-25T10:41:14.188Z,15.30
2019-04-25T10:43:54.186Z,15.78
2019-04-25T10:46:31.194Z,15.90
2019-04-25T10:49:08.579Z,15.88
2019-04-25T10:51:47.986Z,16.48
2019-04-25T10:54:25.338Z,14.87
2019-04-25T10:57:06.407Z,14.83
2019-04-25T10:59:55.298Z,14.87
2019-04-25T11:02:23.579Z,13.72
2019-04-25T11:05:10.834Z,14.25
2019-04-25T11:07:48.680Z,13.95
2019-04-25T11:10:27.392Z,13.93
2019-04-25T11:13:04.874Z,14.03
2019-04-25T11:15:44.843Z,14.05
2019-04-25T11:18:23.851Z,13.70
2019-04-25T11:21:01.197Z,13.40
2019-04-25T11:23:39.190Z,13.72
2019-04-25T11:26:17.501Z,13.10
2019-04-25T11:28:55.431Z,13.03
2019-04-25T11:31:37.893Z,14.10
2019-04-25T11:34:15.707Z,13.13
2019-04-25T11:36:53.173Z,12.43
2019-04-25T11:39:43.277Z,12.73
2019-04-25T11:42:21.188Z,12.15
2019-04-25T11:44:58.423Z,11.93
2019-04-25T11:47:36.250Z,12.30
2019-04-25T11:50:14.726Z,11.90
2019-04-25T11:52:53.103Z,12.63
2019-04-25T11:55:31.900Z,12.90
2019-04-25T11:58:09.777Z,13.70
2019-04-25T12:00:48.885Z,13.28
2019-04-25T12:03:27.126Z,12.78
2019-04-25T12:06:04.506Z,13.03
2019-04-25T12:08:41.981Z,12.20
2019-04-25T12:11:20.583Z,12.55
2019-04-25T12:13:58.220Z,12.03
2019-04-25T12:16:35.464Z,11.93
2019-04-25T12:19:14.025Z,11.73
2019-04-25T12:21:51.615Z,11.70
2019-04-25T12:24:29.046Z,11.73
2019-04-25T12:27:07.909Z,11.08
2019-04-25T12:29:46.058Z,10.35
2019-04-25T12:32:23.571Z,10.80
2019-04-25T12:35:01.369Z,10.20
2019-04-25T12:37:38.698Z,10.93
2019-04-25T12:40:16.290Z,11.25
2019-04-25T12:42:54.367Z,10.85
2019-04-25T12:45:47.275Z,10.40
2019-04-25T12:48:24.948Z,9.53
2019-04-25T12:51:03.204Z,9.20
2019-04-25T12:53:41.016Z,9.23
2019-04-25T12:56:20.315Z,9.35
2019-04-25T12:58:59.113Z,8.98
2019-04-25T13:01:36.987Z,8.78
2019-04-25T13:04:14.730Z,9.78
2019-04-25T13:06:54.340Z,9.10
2019-04-25T13:09:31.202Z,10.50
2019-04-25T13:12:10.676Z,9.83
2019-04-25T13:14:49.022Z,9.68
2019-04-25T13:17:26.605Z,9.20
2019-04-25T13:20:04.106Z,10.05
2019-04-25T13:22:43.243Z,9.20
2019-04-25T13:25:24.275Z,10.03
2019-04-25T13:28:20.116Z,9.98
2019-04-25T13:31:15.711Z,9.58
2019-04-25T13:34:11.723Z,10.10
2019-04-25T13:36:51.450Z,10.30
2019-04-25T13:39:29.185Z,10.78
2019-04-25T13:42:07.965Z,11.93
2019-04-25T13:44:48.573Z,12.23
2019-04-25T13:47:29.200Z,11.83
2019-04-25T13:50:05.193Z,12.10
2019-04-25T13:52:43.252Z,11.48
2019-04-25T13:55:21.218Z,12.82
2019-04-25T13:57:59.144Z,13.08
2019-04-25T14:00:36.918Z,11.88
2019-04-25T14:03:14.994Z,12.63
2019-04-25T14:05:53.960Z,13.30
2019-04-25T14:08:33.385Z,13.13
2019-04-25T14:11:10.524Z,12.75
2019-04-25T14:13:48.779Z,12.50
2019-04-25T14:16:47.938Z,12.88
2019-04-25T14:19:44.277Z,13.13
2019-04-25T14:22:22.149Z,11.35
2019-04-25T14:24:59.551Z,11.80
2019-04-25T14:27:37.310Z,11.28
2019-04-25T14:30:17.891Z,11.80
2019-04-25T14:32:55.305Z,11.53
2019-04-25T14:35:34.033Z,10.93
2019-04-25T14:38:11.438Z,11.55
2019-04-25T14:40:50.145Z,11.28
2019-04-25T14:43:27.314Z,11.15
2019-04-25T14:46:04.686Z,11.00
2019-04-25T14:48:42.031Z,10.45
2019-04-25T14:51:19.800Z,10.32
2019-04-25T14:53:58.363Z,9.98
2019-04-25T14:56:54.215Z,9.85
2019-04-25T14:59:31.855Z,10.08
2019-04-25T15:02:09.248Z,10.20
2019-04-25T15:04:47.829Z,10.55
2019-04-25T15:07:26.022Z,10.15
2019-04-25T15:10:03.069Z,10.55
2019-04-25T15:12:40.972Z,10.32
2019-04-25T15:15:22.310Z,10.18
2019-04-25T15:18:00.688Z,10.75
2019-04-25T15:20:39.139Z,11.90
2019-04-25T15:23:16.585Z,12.10
2019-04-25T15:25:54.140Z,11.68
2019-04-25T15:28:31.679Z,11.15
2019-04-25T15:31:09.403Z,10.23
2019-04-25T15:33:47.339Z,11.22
2019-04-25T15:36:30.920Z,10.70
2019-04-25T15:39:33.209Z,11.43
2019-04-25T15:42:27.777Z,11.48
2019-04-25T15:45:27.467Z,12.98
2019-04-25T15:48:06.393Z,10.98
2019-04-25T15:50:44.226Z,10.43
2019-04-25T15:53:23.645Z,11.30
2019-04-25T15:56:01.597Z,11.25
2019-04-25T15:58:39.048Z,10.68
2019-04-25T16:01:16.469Z,10.58
2019-04-25T16:03:54.867Z,10.45
2019-04-25T16:06:32.811Z,10.40
2019-04-25T16:09:14.263Z,11.40
2019-04-25T16:11:51.505Z,9.85
2019-04-25T16:14:28.881Z,10.65
2019-04-25T16:17:07.028Z,11.40
2019-04-25T16:19:44.735Z,11.33
2019-04-25T16:22:22.052Z,11.25
2019-04-25T16:25:00.930Z,11.00
2019-04-25T16:27:39.435Z,10.82
2019-04-25T16:30:17.420Z,10.72
2019-04-25T16:32:55.762Z,11.08
2019-04-25T16:35:33.441Z,10.55
2019-04-25T16:38:11.749Z,10.10
2019-04-25T16:40:51.165Z,11.43
2019-04-25T16:43:31.153Z,10.35
2019-04-25T16:46:08.866Z,11.00
2019-04-25T16:48:46.456Z,10.93
2019-04-25T16:51:24.621Z,11.25
2019-04-25T16:54:01.967Z,12.53
2019-04-25T16:56:39.890Z,10.63
2019-04-25T16:59:17.495Z,11.90
2019-04-25T17:01:55.208Z,12.03
2019-04-25T17:04:33.087Z,12.20
2019-04-25T17:07:10.862Z,12.63
2019-04-25T17:09:48.800Z,12.23
2019-04-25T17:12:27.883Z,12.35
2019-04-25T17:15:32.965Z,12.50
2019-04-25T17:18:18.168Z,12.05
2019-04-25T17:21:03.957Z,13.00
2019-04-25T17:47:10.699Z,15.68
2019-04-25T17:49:48.768Z,15.45
2019-04-25T17:52:26.318Z,16.35
2019-04-25T17:55:03.922Z,15.88
2019-04-25T17:57:42.041Z,15.83
2019-04-25T18:00:29.834Z,16.73
2019-04-25T18:03:09.192Z,15.93
2019-04-25T18:05:46.885Z,15.65
2019-04-25T18:08:24.522Z,16.27
2019-04-25T18:11:01.831Z,16.02
2019-04-25T18:13:40.104Z,16.35
2019-04-25T18:16:29.908Z,16.15
2019-04-25T18:19:14.177Z,15.85
2019-04-25T18:21:52.523Z,16.10
2019-04-25T18:24:46.682Z,16.37
2019-04-25T18:27:46.274Z,15.70
2019-04-25T18:30:24.314Z,15.65
2019-04-25T18:33:26.511Z,15.20
2019-04-25T18:36:21.449Z,16.23
2019-04-25T18:39:11.725Z,15.15
2019-04-25T18:42:08.312Z,15.90
2019-04-25T18:44:47.229Z,17.30
2019-04-25T18:47:25.683Z,16.37
2019-04-25T18:50:03.325Z,16.40
2019-04-25T18:53:12.127Z,15.95
2019-04-25T18:55:56.286Z,16.45
2019-04-25T18:58:52.229Z,17.00
2019-04-25T19:01:58.362Z,16.90
2019-04-25T19:04:47.228Z,17.37
2019-04-25T19:07:25.764Z,18.37
2019-04-25T19:10:22.183Z,17.25
2019-04-25T19:13:12.129Z,17.65
2019-04-25T19:15:41.271Z,17.57
2019-04-25T19:18:18.742Z,16.95
2019-04-25T19:20:56.677Z,17.80
2019-04-25T19:23:35.469Z,17.85
2019-04-25T19:26:13.082Z,15.78
2019-04-25T19:28:50.197Z,17.55
2019-04-25T19:31:27.807Z,17.77
2019-04-25T19:34:06.045Z,17.70
2019-04-25T19:36:43.662Z,17.40
2019-04-25T19:39:22.346Z,18.55
2019-04-25T19:42:16.821Z,19.27
2019-04-25T19:44:55.506Z,17.65
2019-04-25T19:47:34.062Z,18.92
2019-04-25T19:50:11.290Z,17.95
2019-04-25T19:52:49.670Z,16.80
2019-04-25T19:55:29.227Z,18.95
2019-04-25T19:58:07.231Z,17.40
2019-04-25T20:00:44.910Z,16.85
2019-04-25T20:03:32.740Z,17.45
2019-04-25T20:06:27.460Z,16.75
2019-04-25T20:09:23.935Z,16.00
2019-04-25T20:12:01.507Z,16.55
2019-04-25T20:14:39.691Z,16.57
2019-04-25T20:17:17.437Z,18.35
2019-04-25T20:19:54.905Z,17.73
2019-04-25T20:22:32.376Z,18.55
2019-04-25T20:25:10.770Z,17.67
2019-04-25T20:27:49.435Z,18.80
2019-04-25T20:30:27.254Z,18.92
2019-04-25T20:33:04.831Z,18.37
2019-04-25T20:35:42.534Z,17.98
2019-04-25T20:38:20.223Z,18.15
2019-04-25T20:40:58.489Z,19.25
2019-04-25T20:43:35.738Z,19.42
2019-04-25T20:46:14.048Z,17.37
2019-04-25T20:48:52.339Z,17.12
2019-04-25T20:51:29.985Z,18.40
2019-04-25T20:54:07.841Z,17.67
2019-04-25T20:56:45.042Z,17.05
2019-04-25T20:59:23.849Z,16.90
2019-04-25T21:02:02.084Z,17.40
2019-04-25T21:04:47.777Z,17.40
2019-04-25T21:07:26.920Z,16.70
2019-04-25T21:10:05.379Z,16.73
2019-04-25T21:12:43.193Z,17.82
2019-04-25T21:15:41.966Z,17.20
2019-04-25T21:18:27.487Z,17.98
2019-04-25T21:21:07.299Z,16.65
2019-04-25T21:23:44.610Z,16.00
2019-04-25T21:26:22.183Z,16.67
2019-04-25T21:29:00.038Z,16.15
2019-04-25T21:31:39.751Z,16.37
2019-04-25T21:34:25.839Z,16.97
2019-04-25T21:36:57.580Z,17.20
2019-04-25T21:39:56.840Z,16.02
2019-04-25T21:42:45.776Z,15.70
2019-04-25T21:45:23.606Z,17.05
2019-04-25T21:48:00.854Z,16.77
2019-04-25T21:50:40.746Z,17.80
2019-04-25T21:53:18.940Z,17.52
2019-04-25T21:55:56.896Z,15.60
2019-04-25T21:58:35.474Z,17.45
2019-04-25T22:01:17.159Z,16.70
2019-04-25T22:03:56.486Z,16.20
2019-04-25T22:06:34.725Z,15.70
2019-04-25T22:09:18.508Z,16.77
2019-04-25T22:11:57.341Z,16.95
2019-04-25T22:14:35.026Z,17.75
2019-04-25T22:17:12.827Z,16.25
2019-04-25T22:19:50.148Z,17.52
2019-04-25T22:22:28.243Z,17.12
2019-04-25T22:25:06.787Z,17.07
2019-04-25T22:27:45.542Z,18.60
2019-04-25T22:30:23.827Z,17.80
2019-04-25T22:33:11.541Z,18.82
2019-04-25T22:35:57.679Z,18.42
2019-04-25T22:38:36.764Z,17.15
2019-04-25T22:41:13.955Z,18.52
2019-04-25T22:43:55.794Z,18.48
2019-04-25T22:46:34.129Z,17.52
2019-04-25T22:49:11.865Z,18.80
2019-04-25T22:51:50.544Z,18.70
2019-04-25T22:54:29.958Z,20.95
2019-04-25T22:57:08.675Z,20.48
2019-04-25T22:59:46.642Z,19.98
2019-04-25T23:02:33.375Z,18.95
2019-04-25T23:05:38.727Z,19.57
2019-04-25T23:08:17.808Z,21.20
2019-04-25T23:10:55.530Z,21.05
2019-04-25T23:13:32.775Z,20.40
2019-04-25T23:16:11.518Z,19.73
2019-04-25T23:18:49.445Z,20.85
2019-04-25T23:21:28.047Z,19.90
2019-04-25T23:24:05.561Z,21.65
2019-04-25T23:27:14.372Z,22.58
2019-04-25T23:29:52.899Z,21.45
2019-04-25T23:32:30.647Z,20.55
2019-04-25T23:35:23.913Z,20.88
2019-04-25T23:37:47.612Z,22.37
2019-04-25T23:40:27.454Z,21.90
2019-04-25T23:43:06.251Z,20.32
2019-04-25T23:45:43.369Z,22.58
2019-04-25T23:48:21.752Z,22.87
2019-04-25T23:50:59.879Z,23.73
2019-04-25T23:53:37.827Z,21.33
2019-04-25T23:56:15.246Z,21.85
2019-04-25T23:58:53.192Z,22.25
